Time;durP1;ratioP1;P1;durP2;ratioP2;P2;SDS_P1;SDS_P2;PMS_P1;PMS_P2;Temp;Humidity;BMP_temperature;BMP_pressure;BME280_temperature;BME280_humidity;BME280_pressure;Samples;Min_cycle;Max_cycle;Signal;HPM_P1;HPM_P2
2021/08/21 00:00:19;;;;;;;6.15;5.57;;;21.90;71.20;;;;;;5000209;28;20205;-85
2021/08/21 00:02:44;;;;;;;17.50;6.57;;;21.70;72.20;;;;;;5003899;28;20560;-85
2021/08/21 00:05:10;;;;;;;5.15;4.75;;;21.40;73.20;;;;;;4996807;28;20245;-85
2021/08/21 00:07:36;;;;;;;6.15;5.47;;;21.40;73.40;;;;;;4995331;28;20268;-85
2021/08/21 00:10:05;;;;;;;6.70;5.10;;;21.40;72.60;;;;;;4999780;28;20284;-85
2021/08/21 00:12:31;;;;;;;5.80;5.30;;;21.30;72.90;;;;;;4994554;28;20237;-85
2021/08/21 00:14:57;;;;;;;5.55;5.05;;;21.40;72.90;;;;;;4997534;28;20205;-86
2021/08/21 00:17:23;;;;;;;5.35;4.90;;;21.40;72.70;;;;;;5004049;28;20297;-85
2021/08/21 00:19:48;;;;;;;4.97;4.60;;;21.40;72.80;;;;;;5004807;28;20205;-83
2021/08/21 00:22:14;;;;;;;5.22;4.82;;;21.40;72.60;;;;;;5008119;28;20360;-85
2021/08/21 00:24:41;;;;;;;5.68;5.13;;;21.40;72.30;;;;;;5003976;28;20230;-86
2021/08/21 00:27:07;;;;;;;5.95;5.30;;;21.40;72.00;;;;;;4998172;28;20251;-86
2021/08/21 00:29:32;;;;;;;5.43;4.90;;;21.40;72.20;;;;;;5000590;28;20209;-85
2021/08/21 00:31:58;;;;;;;8.43;5.07;;;21.40;72.30;;;;;;5012536;28;20205;-87
2021/08/21 00:34:24;;;;;;;6.53;5.18;;;21.40;72.00;;;;;;5007936;28;20232;-86
2021/08/21 00:36:50;;;;;;;5.57;5.07;;;21.30;72.20;;;;;;4997343;28;20197;-85
2021/08/21 00:39:15;;;;;;;5.95;5.32;;;21.30;72.30;;;;;;5003244;28;20226;-85
2021/08/21 00:41:42;;;;;;;5.07;4.68;;;21.30;72.60;;;;;;5009385;28;20298;-85
2021/08/21 00:44:09;;;;;;;5.43;5.03;;;21.10;73.60;;;;;;4998201;28;20194;-86
2021/08/21 00:47:05;;;;;;;5.85;5.25;;;21.10;73.40;;;;;;4994815;28;20221;-85
2021/08/21 00:49:34;;;;;;;5.65;5.15;;;21.20;72.90;;;;;;4996073;28;20774;-85
2021/08/21 00:52:01;;;;;;;5.43;5.03;;;21.10;73.20;;;;;;4996736;28;20193;-86
2021/08/21 00:54:27;;;;;;;5.43;4.93;;;21.20;73.30;;;;;;4998780;28;20190;-86
2021/08/21 00:56:54;;;;;;;6.50;5.35;;;21.10;73.10;;;;;;4997150;28;20190;-85
2021/08/21 00:59:21;;;;;;;6.22;5.50;;;21.10;73.40;;;;;;4998723;28;20320;-86
2021/08/21 01:01:47;;;;;;;5.25;4.75;;;21.10;73.10;;;;;;4997433;28;20272;-86
2021/08/21 01:04:14;;;;;;;6.65;5.15;;;21.20;72.80;;;;;;4999004;28;20224;-85
2021/08/21 01:06:39;;;;;;;6.25;5.75;;;21.10;72.90;;;;;;5000217;28;20217;-84
2021/08/21 01:09:06;;;;;;;5.70;5.28;;;21.10;73.00;;;;;;5020392;28;20261;-85
2021/08/21 01:11:32;;;;;;;5.63;5.13;;;21.10;73.30;;;;;;5002590;28;20705;-85
2021/08/21 01:13:59;;;;;;;6.00;5.40;;;21.00;73.40;;;;;;5009726;28;20423;-85
2021/08/21 01:16:25;;;;;;;6.15;5.63;;;21.00;73.50;;;;;;4998998;28;20196;-85
2021/08/21 01:18:51;;;;;;;6.00;5.40;;;20.80;73.90;;;;;;4997967;28;20227;-85
2021/08/21 01:21:17;;;;;;;6.40;5.40;;;20.50;74.90;;;;;;4999574;28;20465;-85
2021/08/21 01:23:45;;;;;;;6.05;5.45;;;20.50;75.40;;;;;;4997006;28;20209;-85
2021/08/21 01:26:11;;;;;;;6.00;5.50;;;20.60;75.00;;;;;;4998068;28;20219;-86
2021/08/21 01:28:37;;;;;;;5.40;5.00;;;20.70;74.50;;;;;;4997795;28;20227;-85
2021/08/21 01:31:04;;;;;;;5.93;5.28;;;20.70;74.70;;;;;;4998643;28;20663;-86
2021/08/21 01:33:32;;;;;;;6.38;5.75;;;20.70;74.10;;;;;;5002899;28;20229;-85
2021/08/21 01:35:58;;;;;;;5.30;4.90;;;20.70;74.10;;;;;;4999391;28;20545;-85
2021/08/21 01:38:24;;;;;;;5.65;4.95;;;20.60;74.60;;;;;;4999468;28;20703;-85
2021/08/21 01:40:51;;;;;;;6.00;5.25;;;20.70;74.30;;;;;;4999133;28;20252;-85
2021/08/21 01:43:18;;;;;;;5.88;5.35;;;20.70;75.20;;;;;;4999729;28;20277;-85
2021/08/21 01:45:44;;;;;;;6.53;5.57;;;20.70;74.10;;;;;;5015274;28;20200;-85
2021/08/21 01:48:11;;;;;;;6.78;5.75;;;20.60;74.20;;;;;;5011347;28;20238;-86
2021/08/21 01:50:37;;;;;;;5.93;5.25;;;20.50;74.30;;;;;;5012184;28;20188;-85
2021/08/21 01:53:04;;;;;;;6.32;5.10;;;20.60;74.40;;;;;;5002440;28;20188;-85
2021/08/21 01:55:29;;;;;;;6.32;5.50;;;20.60;74.20;;;;;;4999304;28;20201;-86
2021/08/21 01:57:55;;;;;;;6.88;5.50;;;20.50;74.60;;;;;;4998150;28;20304;-85
2021/08/21 02:00:27;;;;;;;5.85;5.03;;;20.50;75.10;;;;;;5000568;28;20685;-85
2021/08/21 02:02:54;;;;;;;5.85;5.28;;;20.50;75.50;;;;;;4996692;28;20561;-85
2021/08/21 02:05:20;;;;;;;6.10;5.45;;;20.40;75.20;;;;;;5003920;28;20305;-85
2021/08/21 02:07:46;;;;;;;5.80;4.88;;;20.40;74.70;;;;;;5010389;28;20223;-85
2021/08/21 02:10:14;;;;;;;5.53;5.10;;;20.40;75.40;;;;;;5004970;28;20199;-85
2021/08/21 02:12:39;;;;;;;6.03;5.43;;;20.40;74.90;;;;;;5046248;23;20233;-86
2021/08/21 02:15:12;;;;;;;5.30;4.90;;;20.40;74.50;;;;;;5034994;28;20192;-87
2021/08/21 02:17:38;;;;;;;5.15;4.72;;;20.50;74.30;;;;;;5020668;28;20275;-87
2021/08/21 02:20:11;;;;;;;5.93;5.32;;;20.50;74.00;;;;;;5023288;28;20210;-87
2021/08/21 02:22:41;;;;;;;5.38;4.97;;;20.40;74.30;;;;;;5039544;28;20616;-87
2021/08/21 02:25:08;;;;;;;5.78;5.20;;;20.40;74.40;;;;;;5037417;28;20191;-87
2021/08/21 02:27:39;;;;;;;5.50;4.75;;;20.30;74.60;;;;;;5021585;28;20668;-87
2021/08/21 02:30:06;;;;;;;5.90;5.35;;;20.30;75.00;;;;;;5023780;28;20721;-87
2021/08/21 02:32:32;;;;;;;5.80;5.30;;;20.10;75.60;;;;;;5023629;28;20206;-87
2021/08/21 02:34:58;;;;;;;5.80;5.30;;;20.20;74.90;;;;;;5023569;28;20182;-87
2021/08/21 02:37:24;;;;;;;5.07;4.68;;;20.20;74.90;;;;;;5007219;28;20179;-87
2021/08/21 02:39:50;;;;;;;5.45;4.93;;;20.10;75.20;;;;;;5023809;28;20177;-87
2021/08/21 02:42:16;;;;;;;5.30;4.90;;;20.20;74.80;;;;;;5022956;28;20218;-86
2021/08/21 02:44:42;;;;;;;7.45;5.00;;;20.20;74.80;;;;;;5017973;28;20186;-87
2021/08/21 02:47:07;;;;;;;6.03;5.32;;;20.20;74.20;;;;;;5023393;28;20247;-87
2021/08/21 02:49:34;;;;;;;5.88;5.38;;;20.00;74.60;;;;;;5021621;28;20189;-87
2021/08/21 02:52:00;;;;;;;6.07;5.38;;;19.80;75.60;;;;;;5021793;28;20213;-87
2021/08/21 02:54:26;;;;;;;5.70;5.15;;;19.80;76.00;;;;;;5023981;28;20268;-87
2021/08/21 02:56:52;;;;;;;5.40;4.90;;;19.80;75.40;;;;;;5021562;28;20230;-87
2021/08/21 02:59:18;;;;;;;5.38;4.93;;;19.90;75.60;;;;;;5027143;28;20267;-87
2021/08/21 03:01:43;;;;;;;5.20;4.75;;;19.90;75.10;;;;;;5023379;28;20209;-87
2021/08/21 03:04:09;;;;;;;5.40;4.90;;;19.80;75.10;;;;;;5038396;28;20599;-87
2021/08/21 03:06:35;;;;;;;4.95;4.55;;;19.90;74.90;;;;;;5020457;28;20211;-87
2021/08/21 03:09:02;;;;;;;5.30;4.90;;;20.00;74.70;;;;;;5022915;28;20274;-87
2021/08/21 03:11:27;;;;;;;5.50;5.05;;;20.00;74.60;;;;;;5019644;28;20221;-87
2021/08/21 03:13:53;;;;;;;5.90;5.40;;;19.90;74.40;;;;;;5015143;28;20188;-87
2021/08/21 03:16:19;;;;;;;5.22;4.68;;;19.70;75.60;;;;;;5036682;28;20238;-87
2021/08/21 03:18:44;;;;;;;6.07;5.68;;;19.70;75.60;;;;;;5026498;28;20193;-87
2021/08/21 03:21:10;;;;;;;5.70;5.20;;;19.70;76.00;;;;;;5051392;28;20215;-86
2021/08/21 03:23:38;;;;;;;5.82;5.20;;;19.90;76.00;;;;;;5036164;28;20174;-87
2021/08/21 03:26:04;;;;;;;6.25;5.65;;;20.00;75.50;;;;;;5024552;28;20251;-86
2021/08/21 03:28:30;;;;;;;5.90;5.35;;;20.00;75.60;;;;;;5022750;28;20192;-86
2021/08/21 03:30:56;;;;;;;5.55;5.05;;;19.70;75.20;;;;;;5023610;28;20250;-86
2021/08/21 03:33:22;;;;;;;5.53;5.10;;;19.70;76.20;;;;;;5027602;28;20193;-87
2021/08/21 03:35:48;;;;;;;6.03;5.53;;;19.70;76.20;;;;;;5033689;28;20181;-87
2021/08/21 03:38:14;;;;;;;5.50;4.97;;;19.80;75.90;;;;;;5022871;28;20193;-87
2021/08/21 03:40:39;;;;;;;5.88;5.38;;;19.80;75.60;;;;;;5016733;28;20206;-87
2021/08/21 03:43:05;;;;;;;5.95;5.35;;;19.80;74.50;;;;;;5031423;28;20210;-87
2021/08/21 03:45:31;;;;;;;5.57;5.18;;;19.70;75.40;;;;;;5022324;28;20205;-87
2021/08/21 03:47:56;;;;;;;5.70;5.20;;;19.40;76.70;;;;;;5020462;28;20208;-87
2021/08/21 03:50:22;;;;;;;5.22;4.82;;;19.40;76.80;;;;;;5020719;28;20178;-87
2021/08/21 03:52:48;;;;;;;5.57;5.07;;;19.40;77.80;;;;;;5030629;28;20295;-87
2021/08/21 03:55:14;;;;;;;5.97;5.47;;;19.40;77.50;;;;;;5020840;28;20193;-87
2021/08/21 03:57:40;;;;;;;6.60;5.10;;;19.60;77.50;;;;;;5019331;28;20213;-88
2021/08/21 04:00:07;;;;;;;4.70;4.40;;;19.60;77.20;;;;;;5015159;28;20179;-87
2021/08/21 04:02:33;;;;;;;5.90;5.30;;;19.70;76.80;;;;;;5020802;28;20739;-87
2021/08/21 04:04:59;;;;;;;5.60;5.10;;;19.70;76.30;;;;;;5020629;28;20174;-87
2021/08/21 04:07:24;;;;;;;5.38;4.97;;;19.70;76.10;;;;;;5036056;28;20192;-87
2021/08/21 04:09:50;;;;;;;6.05;5.43;;;19.70;75.80;;;;;;5017493;28;20197;-87
2021/08/21 04:12:18;;;;;;;5.97;5.38;;;19.70;75.90;;;;;;5019493;28;20491;-87
2021/08/21 04:14:44;;;;;;;5.60;5.18;;;19.60;76.10;;;;;;5021574;28;20281;-88
2021/08/21 04:17:10;;;;;;;5.90;5.32;;;19.50;76.50;;;;;;5037757;28;20216;-87
2021/08/21 04:19:36;;;;;;;5.97;5.40;;;19.60;75.90;;;;;;5020242;28;20201;-87
2021/08/21 04:22:02;;;;;;;6.18;5.53;;;19.50;76.40;;;;;;5021253;28;20218;-87
2021/08/21 04:24:27;;;;;;;6.60;5.97;;;19.50;76.70;;;;;;5018102;28;20198;-87
2021/08/21 04:26:54;;;;;;;5.70;5.20;;;19.40;77.20;;;;;;5018281;28;20225;-87
2021/08/21 04:29:19;;;;;;;6.10;5.70;;;19.20;78.10;;;;;;5021467;28;20247;-87
2021/08/21 04:31:45;;;;;;;5.88;5.38;;;19.00;80.10;;;;;;5021337;28;20220;-87
2021/08/21 04:34:11;;;;;;;6.05;5.55;;;18.80;81.10;;;;;;5023068;28;20657;-87
2021/08/21 04:36:36;;;;;;;6.45;5.85;;;18.70;81.50;;;;;;5023432;28;20237;-87
2021/08/21 04:39:02;;;;;;;7.80;6.47;;;18.50;82.30;;;;;;5021277;28;20200;-87
2021/08/21 04:41:28;;;;;;;6.30;5.60;;;18.50;83.00;;;;;;5021995;28;20224;-87
2021/08/21 04:43:54;;;;;;;6.13;5.63;;;18.60;83.10;;;;;;5040280;28;20212;-87
2021/08/21 04:46:19;;;;;;;6.20;5.60;;;18.70;82.60;;;;;;5023158;28;20247;-87
2021/08/21 04:48:45;;;;;;;7.43;6.55;;;18.70;82.60;;;;;;5022049;28;20196;-87
2021/08/21 04:51:11;;;;;;;7.60;6.18;;;18.60;82.90;;;;;;5022630;28;20296;-87
2021/08/21 04:53:36;;;;;;;6.72;6.00;;;18.60;83.20;;;;;;5030926;28;20762;-87
2021/08/21 04:56:03;;;;;;;7.07;6.38;;;18.60;82.90;;;;;;5021449;28;20203;-87
2021/08/21 04:58:29;;;;;;;6.20;5.60;;;18.70;82.50;;;;;;5017799;28;20189;-87
2021/08/21 05:00:55;;;;;;;6.82;6.18;;;18.80;82.70;;;;;;5028526;28;20249;-86
2021/08/21 05:03:21;;;;;;;6.32;5.82;;;18.80;82.10;;;;;;5029722;28;20209;-87
2021/08/21 05:05:47;;;;;;;6.72;6.10;;;18.80;82.20;;;;;;5003455;28;20273;-87
2021/08/21 05:08:13;;;;;;;7.38;5.80;;;18.80;82.40;;;;;;5023216;28;20190;-86
2021/08/21 05:10:38;;;;;;;8.45;5.93;;;18.80;82.10;;;;;;5019191;28;20196;-85
2021/08/21 05:13:04;;;;;;;6.13;5.63;;;19.00;81.20;;;;;;5033633;28;20703;-86
2021/08/21 05:15:33;;;;;;;6.38;5.85;;;19.00;81.30;;;;;;5022043;28;20258;-86
2021/08/21 05:18:00;;;;;;;6.88;5.55;;;19.10;81.10;;;;;;5017203;28;20205;-86
2021/08/21 05:20:40;;;;;;;7.47;6.05;;;19.10;80.60;;;;;;5018780;28;20293;-87
2021/08/21 05:23:13;;;;;;;6.15;5.65;;;19.20;80.20;;;;;;5021298;28;20297;-87
2021/08/21 05:25:41;;;;;;;6.45;5.85;;;19.20;80.20;;;;;;5021486;28;20565;-87
2021/08/21 05:28:08;;;;;;;5.93;5.43;;;19.20;79.90;;;;;;5027939;28;20376;-87
2021/08/21 05:30:34;;;;;;;6.25;5.68;;;19.10;80.60;;;;;;5034812;28;20182;-87
2021/08/21 05:33:00;;;;;;;6.10;5.50;;;19.20;80.30;;;;;;5017247;28;20297;-87
2021/08/21 05:35:26;;;;;;;6.13;5.28;;;19.30;80.00;;;;;;5029411;28;20197;-87
2021/08/21 05:37:52;;;;;;;8.15;6.00;;;19.40;79.60;;;;;;5021325;28;20197;-87
2021/08/21 05:40:17;;;;;;;6.22;5.60;;;19.40;79.30;;;;;;5024558;28;20197;-87
2021/08/21 05:42:43;;;;;;;5.63;5.07;;;19.50;79.20;;;;;;5028692;28;20220;-87
2021/08/21 05:45:10;;;;;;;5.97;5.47;;;19.50;79.10;;;;;;5023029;28;20560;-87
2021/08/21 05:47:35;;;;;;;6.07;5.10;;;19.70;78.50;;;;;;5007243;28;20232;-87
2021/08/21 05:50:01;;;;;;;6.75;5.50;;;19.80;78.10;;;;;;5019596;28;20202;-87
2021/08/21 05:52:28;;;;;;;5.80;5.30;;;19.70;78.10;;;;;;5021468;28;20267;-87
2021/08/21 05:54:53;;;;;;;5.95;5.45;;;19.40;79.50;;;;;;5022978;28;20189;-87
2021/08/21 05:57:19;;;;;;;5.50;5.10;;;19.40;79.70;;;;;;5021016;28;20194;-87
2021/08/21 05:59:45;;;;;;;5.75;5.25;;;19.60;79.40;;;;;;5022734;28;20280;-87
2021/08/21 06:02:11;;;;;;;6.57;5.88;;;19.60;79.00;;;;;;5024071;28;20278;-87
2021/08/21 06:04:36;;;;;;;5.85;5.35;;;19.60;78.50;;;;;;5023927;28;20204;-87
2021/08/21 06:07:03;;;;;;;6.68;6.05;;;19.60;78.30;;;;;;5023342;28;20213;-87
2021/08/21 06:09:28;;;;;;;7.03;5.18;;;19.50;78.70;;;;;;5023876;28;20200;-87
2021/08/21 06:11:54;;;;;;;5.03;4.63;;;19.60;78.20;;;;;;5022248;28;20683;-87
2021/08/21 06:14:20;;;;;;;6.18;5.38;;;19.70;78.30;;;;;;5022862;28;20192;-87
2021/08/21 06:16:45;;;;;;;7.63;5.57;;;19.80;77.40;;;;;;5028987;28;20599;-85
2021/08/21 06:19:11;;;;;;;7.47;5.47;;;19.70;78.10;;;;;;5024470;28;20198;-87
2021/08/21 06:21:37;;;;;;;6.88;5.38;;;19.60;78.60;;;;;;5024663;28;20220;-86
2021/08/21 06:24:03;;;;;;;7.22;5.50;;;19.50;79.20;;;;;;5033571;28;20203;-86
2021/08/21 06:26:28;;;;;;;6.40;5.57;;;19.40;79.40;;;;;;5026539;28;20216;-86
2021/08/21 06:28:54;;;;;;;7.43;5.65;;;19.40;79.50;;;;;;5020986;28;20193;-87
2021/08/21 06:31:20;;;;;;;5.95;5.45;;;19.50;79.40;;;;;;5022749;28;20285;-87
2021/08/21 06:33:46;;;;;;;7.20;5.95;;;19.30;79.90;;;;;;5037009;28;20193;-87
2021/08/21 06:36:12;;;;;;;5.47;5.07;;;19.30;79.80;;;;;;5033253;28;20189;-86
2021/08/21 06:38:37;;;;;;;7.18;5.47;;;19.30;80.10;;;;;;5024207;28;20213;-87
2021/08/21 06:41:03;;;;;;;6.43;5.63;;;19.30;80.20;;;;;;5018303;28;20193;-87
2021/08/21 06:43:29;;;;;;;7.30;5.57;;;19.40;80.60;;;;;;5022263;28;20194;-86
2021/08/21 06:45:55;;;;;;;6.47;5.88;;;19.40;80.60;;;;;;5025638;28;20818;-87
2021/08/21 06:48:21;;;;;;;7.38;5.57;;;19.40;80.00;;;;;;5026600;28;20197;-86
2021/08/21 06:50:46;;;;;;;6.80;6.20;;;19.40;80.00;;;;;;5018816;28;20209;-86
2021/08/21 06:53:14;;;;;;;5.85;5.28;;;19.50;79.30;;;;;;5019611;28;20190;-86
2021/08/21 06:55:40;;;;;;;6.00;5.50;;;19.60;79.20;;;;;;5019571;28;20556;-87
2021/08/21 06:58:06;;;;;;;5.78;5.38;;;19.60;78.20;;;;;;5026331;28;20201;-86
2021/08/21 07:00:32;;;;;;;5.78;5.28;;;19.70;77.90;;;;;;5002893;28;20672;-86
2021/08/21 07:02:58;;;;;;;6.45;5.82;;;19.70;77.70;;;;;;5019098;28;20372;-87
2021/08/21 07:05:24;;;;;;;6.22;5.68;;;19.90;77.40;;;;;;5016316;28;20225;-86
2021/08/21 07:07:49;;;;;;;6.10;5.60;;;19.90;76.90;;;;;;5019124;28;20193;-87
2021/08/21 07:10:15;;;;;;;5.93;5.47;;;19.90;76.50;;;;;;5020422;28;20580;-87
2021/08/21 07:12:41;;;;;;;8.07;5.63;;;19.90;75.80;;;;;;5019875;28;20220;-87
2021/08/21 07:15:07;;;;;;;6.30;5.75;;;20.10;75.40;;;;;;5021370;28;20193;-87
2021/08/21 07:17:33;;;;;;;5.93;5.53;;;20.20;74.70;;;;;;5019606;28;20240;-87
2021/08/21 07:19:59;;;;;;;5.90;5.45;;;20.30;74.70;;;;;;5018717;28;20192;-87
2021/08/21 07:22:25;;;;;;;6.43;5.50;;;20.40;74.30;;;;;;5019867;28;20450;-86
2021/08/21 07:24:50;;;;;;;5.78;5.38;;;20.40;74.30;;;;;;5028683;28;20188;-86
2021/08/21 07:27:16;;;;;;;6.50;5.90;;;20.50;74.60;;;;;;5023596;28;20414;-85
2021/08/21 07:29:42;;;;;;;6.63;6.03;;;20.60;74.00;;;;;;5045301;28;20217;-86
2021/08/21 07:32:08;;;;;;;7.38;6.60;;;20.70;73.80;;;;;;5018498;28;20320;-86
2021/08/21 07:34:34;;;;;;;6.75;6.15;;;20.80;73.10;;;;;;5020644;28;20178;-86
2021/08/21 07:36:59;;;;;;;6.13;5.53;;;20.80;73.10;;;;;;5022309;28;20197;-87
2021/08/21 07:39:25;;;;;;;6.80;6.25;;;20.80;73.90;;;;;;5017993;28;20225;-87
2021/08/21 07:41:51;;;;;;;7.78;5.85;;;20.90;73.50;;;;;;5018394;28;20224;-86
2021/08/21 07:44:16;;;;;;;6.53;6.00;;;20.90;73.00;;;;;;5034582;28;20188;-85
2021/08/21 07:46:42;;;;;;;6.45;5.88;;;21.00;72.70;;;;;;5020732;28;20299;-87
2021/08/21 07:49:08;;;;;;;6.55;5.90;;;21.20;72.40;;;;;;5019648;28;20185;-87
2021/08/21 07:51:34;;;;;;;7.72;6.85;;;21.30;72.80;;;;;;5020030;28;20212;-87
2021/08/21 07:54:00;;;;;;;6.70;6.10;;;21.10;73.20;;;;;;5015767;28;20189;-87
2021/08/21 07:56:25;;;;;;;10.88;6.53;;;21.10;73.70;;;;;;5010883;28;20199;-87
2021/08/21 07:58:51;;;;;;;6.53;5.55;;;20.90;74.10;;;;;;5021481;28;20193;-87
2021/08/21 08:01:17;;;;;;;6.90;6.28;;;20.90;74.80;;;;;;5015507;28;20253;-86
2021/08/21 08:03:42;;;;;;;6.65;6.05;;;20.70;74.10;;;;;;5028007;28;20204;-87
2021/08/21 08:06:08;;;;;;;6.28;5.68;;;20.60;74.90;;;;;;5020317;28;20209;-87
2021/08/21 08:08:34;;;;;;;7.10;6.50;;;20.60;74.60;;;;;;5018372;28;20195;-87
2021/08/21 08:11:00;;;;;;;6.18;5.68;;;21.00;72.90;;;;;;5017475;28;20191;-86
2021/08/21 08:13:25;;;;;;;7.43;6.82;;;21.30;71.90;;;;;;5019661;28;20193;-86
2021/08/21 08:15:51;;;;;;;7.13;6.47;;;21.60;70.60;;;;;;5018070;28;20745;-87
2021/08/21 08:18:17;;;;;;;6.82;6.20;;;21.60;70.70;;;;;;5018383;28;20216;-86
2021/08/21 08:20:42;;;;;;;7.30;6.38;;;21.70;71.00;;;;;;5021167;28;20256;-86
2021/08/21 08:23:09;;;;;;;7.03;6.20;;;21.80;69.70;;;;;;5019422;28;20211;-86
2021/08/21 08:25:34;;;;;;;10.05;6.22;;;22.00;69.00;;;;;;5001416;28;20306;-87
2021/08/21 08:28:00;;;;;;;7.45;6.75;;;22.00;68.60;;;;;;5016394;28;20205;-87
2021/08/21 08:30:26;;;;;;;7.15;6.45;;;21.90;70.30;;;;;;5015792;28;20663;-87
2021/08/21 08:32:52;;;;;;;8.57;6.78;;;21.90;69.20;;;;;;5013885;28;20213;-87
2021/08/21 08:35:18;;;;;;;8.70;6.63;;;21.90;70.20;;;;;;5011428;28;20190;-87
2021/08/21 08:37:43;;;;;;;9.45;6.13;;;22.00;68.80;;;;;;5017805;28;20212;-87
2021/08/21 08:40:10;;;;;;;6.68;6.18;;;22.10;68.70;;;;;;5014930;28;20191;-86
2021/08/21 08:42:40;;;;;;;7.45;6.20;;;22.00;68.40;;;;;;5015118;28;20239;-86
2021/08/21 08:45:08;;;;;;;6.55;5.95;;;22.00;69.10;;;;;;5018805;28;20197;-86
2021/08/21 08:47:35;;;;;;;6.28;5.78;;;22.40;67.40;;;;;;5013174;28;20208;-86
2021/08/21 08:50:04;;;;;;;6.97;6.20;;;22.70;65.90;;;;;;5015415;28;20185;-86
2021/08/21 08:52:30;;;;;;;6.38;5.88;;;22.90;65.50;;;;;;5026498;28;20216;-86
2021/08/21 08:54:56;;;;;;;9.88;6.80;;;23.10;64.60;;;;;;5007412;28;20707;-86
2021/08/21 08:57:41;;;;;;;6.43;5.93;;;23.10;66.30;;;;;;5019872;28;20196;-85
2021/08/21 09:00:14;;;;;;;6.28;5.78;;;23.10;64.90;;;;;;5023353;28;20181;-86
2021/08/21 09:02:46;;;;;;;5.50;5.00;;;23.20;64.40;;;;;;5021269;28;20231;-86
2021/08/21 09:05:14;;;;;;;9.10;6.50;;;23.40;61.80;;;;;;5017928;28;21208;-86
2021/08/21 09:07:45;;;;;;;6.30;5.80;;;23.30;63.80;;;;;;5018753;28;20222;-86
2021/08/21 09:10:11;;;;;;;6.40;5.80;;;23.20;63.80;;;;;;5012607;28;20205;-86
2021/08/21 09:12:37;;;;;;;6.38;5.78;;;23.40;63.30;;;;;;5013039;28;20213;-86
2021/08/21 09:15:18;;;;;;;7.82;6.25;;;23.70;63.20;;;;;;5017701;28;20251;-87
2021/08/21 09:17:59;;;;;;;6.07;5.57;;;24.00;61.30;;;;;;5017050;28;20204;-86
2021/08/21 09:20:24;;;;;;;6.82;6.18;;;24.20;61.60;;;;;;5010522;28;21222;-86
2021/08/21 09:22:50;;;;;;;9.20;5.80;;;24.10;61.70;;;;;;5020880;28;20207;-86
2021/08/21 09:25:29;;;;;;;6.57;6.00;;;24.30;62.10;;;;;;5020488;28;20201;-86
2021/08/21 09:27:55;;;;;;;6.70;6.22;;;24.30;61.30;;;;;;5021393;28;20619;-86
2021/08/21 09:30:21;;;;;;;6.95;5.97;;;24.30;61.40;;;;;;5025487;28;20182;-86
2021/08/21 09:32:47;;;;;;;8.15;5.57;;;24.50;60.60;;;;;;5024838;28;20272;-87
2021/08/21 09:35:13;;;;;;;7.00;6.30;;;24.80;59.20;;;;;;5024573;28;20202;-86
2021/08/21 09:37:53;;;;;;;7.30;5.50;;;25.10;58.00;;;;;;5039846;28;20236;-86
2021/08/21 09:40:31;;;;;;;8.45;5.93;;;25.10;59.10;;;;;;5026755;28;20643;-86
2021/08/21 09:42:57;;;;;;;6.82;5.72;;;25.30;57.40;;;;;;5027281;28;20217;-86
2021/08/21 09:45:24;;;;;;;7.18;6.03;;;25.50;56.40;;;;;;5025476;28;20189;-86
2021/08/21 09:48:01;;;;;;;6.22;5.63;;;25.70;56.20;;;;;;5043614;28;20541;-87
2021/08/21 09:50:31;;;;;;;6.03;5.53;;;25.70;54.70;;;;;;5025663;28;20193;-87
2021/08/21 09:53:03;;;;;;;7.13;5.85;;;25.70;55.90;;;;;;5027102;28;20211;-87
2021/08/21 09:55:30;;;;;;;6.72;5.47;;;25.80;55.10;;;;;;5037839;28;20213;-86
2021/08/21 09:58:00;;;;;;;5.72;5.32;;;25.90;54.00;;;;;;5027490;28;20250;-87
2021/08/21 10:00:30;;;;;;;6.63;6.13;;;25.90;53.70;;;;;;5024358;28;20217;-86
2021/08/21 10:02:56;;;;;;;6.72;6.07;;;26.10;53.40;;;;;;5051468;28;20209;-86
2021/08/21 10:05:23;;;;;;;6.90;6.30;;;26.50;53.40;;;;;;5014997;28;20189;-86
2021/08/21 10:08:01;;;;;;;7.07;5.63;;;26.60;53.90;;;;;;5019404;28;20575;-86
2021/08/21 10:10:34;;;;;;;6.00;5.50;;;26.60;53.70;;;;;;5023646;28;20194;-86
2021/08/21 10:13:18;;;;;;;5.30;4.90;;;26.40;54.80;;;;;;5028839;28;20221;-87
2021/08/21 10:15:46;;;;;;;6.28;5.78;;;26.50;54.70;;;;;;5024290;28;20315;-87
2021/08/21 10:18:12;;;;;;;6.03;5.43;;;26.70;54.00;;;;;;5016892;28;20190;-86
2021/08/21 10:20:39;;;;;;;5.30;4.90;;;26.70;51.50;;;;;;5040180;28;20200;-86
2021/08/21 10:23:28;;;;;;;8.43;5.50;;;27.00;52.60;;;;;;5025347;28;20209;-86
2021/08/21 10:25:58;;;;;;;5.97;5.22;;;27.20;53.20;;;;;;5024884;28;20275;-86
2021/08/21 10:28:34;;;;;;;5.60;5.20;;;27.50;49.90;;;;;;5019534;28;20553;-86
2021/08/21 10:31:00;;;;;;;6.10;5.57;;;27.60;50.80;;;;;;5025868;28;20248;-86
2021/08/21 10:33:28;;;;;;;6.10;5.55;;;27.40;51.20;;;;;;5026816;28;20193;-86
2021/08/21 10:35:56;;;;;;;5.93;5.32;;;27.80;49.40;;;;;;5027266;28;20178;-86
2021/08/21 10:38:32;;;;;;;5.85;5.35;;;28.10;49.00;;;;;;5014612;28;20209;-87
2021/08/21 10:41:26;;;;;;;5.65;5.07;;;28.20;47.90;;;;;;5021510;28;20213;-87
2021/08/21 10:43:54;;;;;;;5.80;5.32;;;28.30;48.30;;;;;;5019735;28;20240;-87
2021/08/21 10:46:29;;;;;;;5.90;5.40;;;28.40;48.10;;;;;;5025298;28;20363;-85
2021/08/21 10:48:57;;;;;;;6.72;5.75;;;28.60;46.40;;;;;;5025384;28;20181;-85
2021/08/21 10:51:40;;;;;;;6.30;5.80;;;28.80;45.90;;;;;;5023597;28;20255;-85
2021/08/21 10:54:24;;;;;;;5.95;5.45;;;28.90;44.60;;;;;;5037786;28;20185;-85
2021/08/21 10:56:53;;;;;;;6.30;5.82;;;29.00;44.00;;;;;;5026408;28;20193;-85
2021/08/21 10:59:52;;;;;;;7.72;6.90;;;29.00;44.10;;;;;;5024949;28;20189;-85
2021/08/21 11:02:31;;;;;;;8.30;7.43;;;29.10;44.30;;;;;;5006284;28;20217;-87
2021/08/21 11:04:58;;;;;;;6.78;5.70;;;29.20;44.70;;;;;;5038775;28;20188;-86
2021/08/21 11:07:29;;;;;;;6.10;5.57;;;29.10;45.20;;;;;;5019846;28;20207;-85
2021/08/21 11:10:18;;;;;;;6.30;5.80;;;29.40;45.10;;;;;;5025849;28;20181;-85
2021/08/21 11:12:50;;;;;;;5.93;5.43;;;29.50;44.50;;;;;;5028195;28;20205;-86
2021/08/21 11:15:33;;;;;;;6.85;6.35;;;29.90;43.70;;;;;;5034550;28;20181;-87
2021/08/21 11:18:00;;;;;;;6.80;5.60;;;30.00;44.60;;;;;;5019758;28;20195;-86
2021/08/21 11:20:29;;;;;;;6.35;5.85;;;29.90;44.60;;;;;;5027832;28;20193;-86
2021/08/21 11:23:06;;;;;;;6.60;5.63;;;29.90;43.70;;;;;;5024385;28;20209;-87
2021/08/21 11:25:37;;;;;;;6.13;5.63;;;30.10;43.70;;;;;;5032985;28;20185;-87
2021/08/21 11:28:07;;;;;;;6.07;5.60;;;29.70;45.00;;;;;;5021155;28;20174;-86
2021/08/21 11:30:35;;;;;;;6.07;5.63;;;29.80;44.10;;;;;;5023240;28;20631;-87
2021/08/21 11:33:06;;;;;;;6.57;5.60;;;30.20;42.40;;;;;;5042138;28;20228;-87
2021/08/21 11:35:36;;;;;;;5.72;5.10;;;30.30;41.90;;;;;;5022245;28;20261;-86
2021/08/21 11:38:11;;;;;;;6.07;5.40;;;30.40;40.70;;;;;;5022537;28;20196;-86
2021/08/21 11:40:43;;;;;;;6.18;5.68;;;30.70;40.40;;;;;;5021174;28;20255;-87
2021/08/21 11:43:12;;;;;;;5.60;5.20;;;30.90;39.80;;;;;;5016490;28;20281;-87
2021/08/21 11:45:38;;;;;;;9.70;5.78;;;31.00;40.10;;;;;;5022510;28;20285;-86
2021/08/21 11:48:05;;;;;;;6.22;5.63;;;30.80;40.20;;;;;;5016675;28;20198;-87
2021/08/21 11:50:33;;;;;;;6.18;5.55;;;30.80;39.70;;;;;;5022031;28;20203;-87
2021/08/21 11:53:01;;;;;;;5.85;5.35;;;30.90;41.10;;;;;;5020621;28;20202;-87
2021/08/21 11:55:29;;;;;;;6.63;6.03;;;31.20;40.00;;;;;;5021717;28;20194;-87
2021/08/21 11:57:56;;;;;;;6.45;5.95;;;31.50;40.80;;;;;;5031932;28;20245;-87
2021/08/21 12:00:27;;;;;;;6.72;5.85;;;31.60;39.70;;;;;;5019229;28;20193;-88
2021/08/21 12:03:00;;;;;;;5.85;5.40;;;31.90;38.90;;;;;;5017424;28;20209;-87
2021/08/21 12:05:39;;;;;;;6.13;5.63;;;31.90;38.90;;;;;;5016698;28;20198;-88
2021/08/21 12:08:18;;;;;;;5.93;5.50;;;32.10;39.70;;;;;;5012815;28;20174;-88
2021/08/21 12:10:48;;;;;;;6.53;6.03;;;32.30;38.80;;;;;;5013752;28;20189;-87
2021/08/21 12:13:16;;;;;;;5.82;5.32;;;32.10;38.60;;;;;;5012601;28;20193;-87
2021/08/21 12:15:42;;;;;;;5.93;5.47;;;32.30;38.50;;;;;;5014938;28;20182;-84
2021/08/21 12:18:08;;;;;;;6.38;5.88;;;32.50;37.90;;;;;;5013071;28;20198;-85
2021/08/21 12:20:39;;;;;;;6.20;5.80;;;31.50;39.70;;;;;;5017600;28;20200;-86
2021/08/21 12:23:09;;;;;;;6.47;5.97;;;31.30;41.20;;;;;;5016668;28;20206;-87
2021/08/21 12:25:45;;;;;;;6.00;5.50;;;31.60;40.00;;;;;;5027238;28;20278;-87
2021/08/21 12:28:16;;;;;;;6.20;5.65;;;31.70;40.40;;;;;;5022821;28;20221;-88
2021/08/21 12:30:58;;;;;;;6.95;6.30;;;31.60;39.20;;;;;;5011737;28;20214;-86
2021/08/21 12:33:33;;;;;;;7.07;6.38;;;31.10;41.00;;;;;;5007739;28;20186;-87
2021/08/21 12:36:19;;;;;;;6.65;6.00;;;30.70;42.50;;;;;;5015846;28;20193;-87
2021/08/21 12:39:02;;;;;;;7.07;6.15;;;30.70;42.00;;;;;;5017292;28;20196;-87
2021/08/21 12:41:30;;;;;;;6.93;6.28;;;30.70;41.60;;;;;;5027589;28;20288;-86
2021/08/21 12:44:15;;;;;;;6.55;5.95;;;31.10;42.30;;;;;;5020190;28;20277;-87
2021/08/21 12:46:51;;;;;;;6.70;6.07;;;31.60;39.80;;;;;;5015990;28;20228;-85
2021/08/21 12:49:26;;;;;;;6.45;5.88;;;31.40;40.70;;;;;;5023390;28;20197;-87